createdAt,value
2022-09-07T00:00:51.219Z,176.42
2022-09-07T00:01:51.318Z,177.35
2022-09-07T00:02:51.442Z,177.72
2022-09-07T00:03:51.485Z,175.86
2022-09-07T00:04:51.572Z,176.42
2022-09-07T00:05:51.618Z,176.97
2022-09-07T00:06:51.711Z,176.97
2022-09-07T00:07:51.787Z,176.60
2022-09-07T00:08:51.858Z,176.79
2022-09-07T00:09:51.941Z,176.42
2022-09-07T00:10:51.996Z,177.72
2022-09-07T00:11:52.060Z,177.53
2022-09-07T00:12:52.147Z,177.72
2022-09-07T00:13:52.243Z,176.42
2022-09-07T00:14:52.354Z,177.35
2022-09-07T00:15:52.453Z,176.42
2022-09-07T00:16:52.477Z,178.10
2022-09-07T00:17:52.555Z,177.91
2022-09-07T00:18:52.728Z,178.67
2022-09-07T00:19:52.756Z,179.05
2022-09-07T00:20:52.785Z,178.10
2022-09-07T00:21:52.871Z,178.29
2022-09-07T00:22:52.961Z,177.72
2022-09-07T00:23:53.009Z,176.97
2022-09-07T00:24:53.114Z,177.16
2022-09-07T00:25:54.210Z,177.16
2022-09-07T00:26:53.262Z,177.91
2022-09-07T00:27:53.360Z,177.35
2022-09-07T00:28:53.458Z,177.35
2022-09-07T00:29:53.577Z,176.05
2022-09-07T00:30:53.554Z,175.68
2022-09-07T00:31:53.659Z,175.49
2022-09-07T00:32:53.713Z,175.49
2022-09-07T00:33:53.775Z,176.05
2022-09-07T00:34:53.884Z,175.31
2022-09-07T00:35:53.985Z,174.77
2022-09-07T00:36:54.005Z,176.79
2022-09-07T00:37:54.111Z,176.42
2022-09-07T00:38:54.201Z,175.86
2022-09-07T00:39:54.392Z,176.23
2022-09-07T00:40:54.331Z,176.23
2022-09-07T00:41:54.404Z,175.86
2022-09-07T00:42:54.527Z,176.42
2022-09-07T00:43:54.575Z,177.35
2022-09-07T00:44:54.729Z,177.72
2022-09-07T00:45:54.722Z,177.16
2022-09-07T00:46:54.943Z,176.60
2022-09-07T00:47:54.877Z,174.95
2022-09-07T00:48:54.944Z,175.49
2022-09-07T00:49:55.060Z,176.60
2022-09-07T00:50:55.115Z,175.49
2022-09-07T00:51:55.205Z,176.42
2022-09-07T00:52:55.270Z,175.86
2022-09-07T00:53:55.355Z,176.42
2022-09-07T00:54:55.444Z,175.49
2022-09-07T00:55:55.502Z,175.86
2022-09-07T00:56:55.581Z,178.10
2022-09-07T00:57:55.664Z,177.35
2022-09-07T00:58:55.763Z,175.86
2022-09-07T00:59:55.851Z,177.16
2022-09-07T01:00:55.945Z,177.53
2022-09-07T01:01:56.121Z,179.05
2022-09-07T01:02:56.270Z,178.29
2022-09-07T01:03:56.163Z,178.48
2022-09-07T01:04:56.277Z,178.86
2022-09-07T01:05:56.326Z,179.05
2022-09-07T01:06:56.427Z,177.53
2022-09-07T01:07:56.497Z,178.10
2022-09-07T01:08:56.583Z,178.67
2022-09-07T01:09:56.667Z,178.86
2022-09-07T01:10:56.741Z,178.67
2022-09-07T01:11:56.813Z,177.35
2022-09-07T01:12:56.920Z,178.67
2022-09-07T01:13:56.966Z,177.72
2022-09-07T01:14:57.071Z,177.72
2022-09-07T01:15:57.148Z,177.72
2022-09-07T01:16:57.213Z,176.97
2022-09-07T01:17:57.303Z,177.72
2022-09-07T01:18:57.381Z,177.91
2022-09-07T01:19:57.454Z,177.53
2022-09-07T01:20:57.550Z,178.29
2022-09-07T01:21:57.573Z,178.86
2022-09-07T01:22:57.668Z,178.48
2022-09-07T01:23:57.735Z,177.72
2022-09-07T01:24:57.838Z,177.35
2022-09-07T01:25:57.951Z,177.91
2022-09-07T01:26:57.961Z,177.16
2022-09-07T01:27:58.072Z,176.42
2022-09-07T01:28:58.127Z,176.97
2022-09-07T01:29:58.235Z,176.05
2022-09-07T01:30:58.347Z,176.79
2022-09-07T01:31:58.386Z,176.23
2022-09-07T01:32:58.468Z,176.79
2022-09-07T01:33:58.567Z,177.53
2022-09-07T01:34:58.668Z,175.86
2022-09-07T01:35:58.712Z,176.60
2022-09-07T01:36:58.801Z,176.60
2022-09-07T01:37:58.892Z,177.16
2022-09-07T01:38:58.983Z,176.79
2022-09-07T01:39:59.118Z,176.23
2022-09-07T01:40:59.146Z,176.79
2022-09-07T01:41:59.228Z,176.05
2022-09-07T01:42:59.311Z,177.35
2022-09-07T01:43:59.409Z,175.49
2022-09-07T01:44:59.513Z,176.05
2022-09-07T01:45:59.609Z,175.49
2022-09-07T01:46:59.689Z,174.95
2022-09-07T01:47:59.776Z,176.05
2022-09-07T01:48:59.864Z,176.79
2022-09-07T01:49:59.948Z,176.79
2022-09-07T01:51:00.031Z,176.97
2022-09-07T01:52:00.123Z,177.35
2022-09-07T01:53:00.185Z,177.35
2022-09-07T01:54:00.253Z,177.35
2022-09-07T01:55:00.337Z,177.35
2022-09-07T01:56:00.415Z,176.97
2022-09-07T01:57:00.462Z,176.60
2022-09-07T01:58:00.560Z,175.86
2022-09-07T01:59:00.680Z,176.42
2022-09-07T02:00:00.712Z,175.68
2022-09-07T02:01:00.839Z,175.13
2022-09-07T02:02:01.006Z,175.86
2022-09-07T02:03:01.051Z,175.13
2022-09-07T02:04:01.064Z,175.31
2022-09-07T02:05:01.119Z,174.77
2022-09-07T02:06:01.189Z,173.86
2022-09-07T02:07:01.257Z,174.95
2022-09-07T02:08:01.341Z,174.58
2022-09-07T02:09:01.486Z,174.22
2022-09-07T02:10:01.515Z,173.32
2022-09-07T02:11:01.568Z,173.68
2022-09-07T02:12:01.635Z,174.40
2022-09-07T02:13:01.724Z,173.86
2022-09-07T02:14:01.821Z,174.40
2022-09-07T02:15:01.885Z,173.86
2022-09-07T02:16:02.018Z,174.04
2022-09-07T02:17:02.056Z,173.86
2022-09-07T02:18:02.143Z,176.05
2022-09-07T02:19:02.248Z,173.68
2022-09-07T02:20:02.389Z,174.77
2022-09-07T02:21:02.394Z,174.77
2022-09-07T02:22:02.484Z,175.13
2022-09-07T02:23:02.593Z,175.13
2022-09-07T02:24:02.684Z,174.58
2022-09-07T02:25:02.754Z,174.77
2022-09-07T02:26:02.814Z,175.13
2022-09-07T02:27:02.919Z,173.86
2022-09-07T02:28:02.968Z,173.68
2022-09-07T02:29:03.132Z,174.40
2022-09-07T02:30:03.153Z,174.22
2022-09-07T02:31:03.260Z,174.04
2022-09-07T02:32:03.266Z,173.15
2022-09-07T02:33:03.365Z,174.04
2022-09-07T02:34:03.439Z,173.32
2022-09-07T02:35:03.518Z,173.68
2022-09-07T02:36:03.591Z,172.79
2022-09-07T02:37:03.668Z,173.15
2022-09-07T02:38:03.755Z,172.61
2022-09-07T02:39:03.890Z,172.97
2022-09-07T02:40:04.015Z,173.15
2022-09-07T02:41:04.041Z,173.68
2022-09-07T02:42:04.069Z,173.50
2022-09-07T02:43:04.167Z,173.50
2022-09-07T02:44:04.264Z,174.40
2022-09-07T02:45:04.319Z,173.50
2022-09-07T02:46:04.429Z,172.61
2022-09-07T02:47:04.466Z,174.40
2022-09-07T02:48:04.517Z,173.86
2022-09-07T02:49:04.628Z,173.15
2022-09-07T02:50:04.691Z,173.68
2022-09-07T02:51:04.762Z,173.86
2022-09-07T02:52:04.983Z,173.86
2022-09-07T02:53:04.922Z,174.22
2022-09-07T02:54:05.013Z,174.40
2022-09-07T02:55:05.065Z,175.49
2022-09-07T02:56:05.146Z,175.31
2022-09-07T02:57:05.251Z,175.49
2022-09-07T02:58:05.349Z,176.05
2022-09-07T02:59:05.434Z,176.60
2022-09-07T03:00:05.514Z,176.60
2022-09-07T03:01:05.656Z,177.16
2022-09-07T03:02:05.731Z,177.16
2022-09-07T03:03:05.748Z,176.05
2022-09-07T03:04:05.798Z,176.60
2022-09-07T03:05:05.883Z,177.16
2022-09-07T03:06:05.937Z,177.72
2022-09-07T03:07:06.046Z,176.97
2022-09-07T03:08:06.192Z,177.72
2022-09-07T03:09:06.223Z,176.60
2022-09-07T03:10:06.311Z,177.53
2022-09-07T03:11:06.370Z,178.10
2022-09-07T03:12:06.457Z,176.97
2022-09-07T03:13:06.538Z,176.97
2022-09-07T03:14:06.601Z,176.23
2022-09-07T03:15:06.680Z,176.79
2022-09-07T03:16:06.803Z,176.42
2022-09-07T03:17:06.864Z,176.42
2022-09-07T03:18:06.926Z,175.68
2022-09-07T03:19:06.994Z,176.79
2022-09-07T03:20:07.097Z,175.31
2022-09-07T03:21:07.110Z,175.86
2022-09-07T03:22:07.201Z,175.31
2022-09-07T03:23:07.307Z,175.13
2022-09-07T03:24:07.330Z,174.04
2022-09-07T03:25:07.428Z,176.05
2022-09-07T03:26:07.478Z,175.49
2022-09-07T03:27:07.608Z,177.16
2022-09-07T03:28:07.659Z,175.13
2022-09-07T03:29:07.762Z,175.86
2022-09-07T03:30:07.840Z,174.95
2022-09-07T03:31:07.942Z,175.13
2022-09-07T03:32:07.991Z,175.68
2022-09-07T03:33:08.102Z,176.05
2022-09-07T03:34:08.195Z,175.68
2022-09-07T03:35:08.273Z,175.86
2022-09-07T03:36:08.380Z,176.60
2022-09-07T03:37:08.487Z,176.05
2022-09-07T03:38:08.539Z,175.49
2022-09-07T03:39:08.616Z,176.23
2022-09-07T03:40:08.811Z,176.97
2022-09-07T03:41:08.779Z,175.31
2022-09-07T03:42:08.877Z,174.40
2022-09-07T03:43:08.952Z,173.86
2022-09-07T03:44:09.022Z,173.50
2022-09-07T03:45:09.116Z,174.04
2022-09-07T03:46:09.345Z,172.97
2022-09-07T03:47:09.253Z,173.32
2022-09-07T03:48:09.383Z,172.79
2022-09-07T03:49:09.438Z,173.15
2022-09-07T03:50:09.499Z,172.79
2022-09-07T03:51:09.561Z,172.79
2022-09-07T03:52:09.662Z,172.43
2022-09-07T03:53:09.744Z,172.26
2022-09-07T03:54:09.881Z,171.03
2022-09-07T03:55:09.899Z,171.91
2022-09-07T03:56:10.054Z,170.34
2022-09-07T03:57:10.209Z,170.34
2022-09-07T03:58:10.124Z,169.99
2022-09-07T03:59:10.222Z,170.17
2022-09-07T04:00:10.567Z,170.51
2022-09-07T04:01:10.510Z,168.29
2022-09-07T04:02:10.549Z,167.46
2022-09-07T04:03:10.580Z,166.29
2022-09-07T04:04:10.613Z,163.86
2022-09-07T04:05:10.680Z,164.67
2022-09-07T04:06:10.764Z,163.86
2022-09-07T04:07:10.835Z,164.99
2022-09-07T04:08:10.942Z,164.02
2022-09-07T04:09:10.984Z,163.23
2022-09-07T04:10:11.069Z,163.23
2022-09-07T04:11:11.181Z,163.07
2022-09-07T04:12:11.661Z,162.75
2022-09-07T04:13:11.285Z,162.60
2022-09-07T04:14:11.382Z,163.23
2022-09-07T04:15:11.544Z,162.13
2022-09-07T04:16:11.511Z,162.28
2022-09-07T04:17:11.854Z,162.75
2022-09-07T04:18:11.665Z,162.60
2022-09-07T04:19:11.744Z,161.97
2022-09-07T04:20:11.845Z,162.91
2022-09-07T04:21:11.911Z,162.60
2022-09-07T04:22:12.001Z,162.91
2022-09-07T04:23:12.050Z,163.07
2022-09-07T04:24:12.161Z,163.23
2022-09-07T04:25:12.233Z,161.81
2022-09-07T04:26:12.381Z,162.13
2022-09-07T04:27:12.397Z,161.97
2022-09-07T04:28:12.555Z,162.28
2022-09-07T04:29:12.556Z,163.70
2022-09-07T04:30:12.693Z,165.64
2022-09-07T04:31:12.774Z,167.12
2022-09-07T04:32:15.811Z,169.48
2022-09-07T04:33:12.850Z,169.48
2022-09-07T04:34:12.934Z,170.51
2022-09-07T04:35:13.012Z,171.21
2022-09-07T04:36:13.127Z,172.08
2022-09-07T04:37:13.222Z,172.08
2022-09-07T04:38:13.243Z,173.68
2022-09-07T04:39:13.313Z,173.68
2022-09-07T04:40:13.563Z,174.95
2022-09-07T04:41:13.465Z,175.49
2022-09-07T04:42:13.551Z,175.13
2022-09-07T04:43:13.688Z,176.05
2022-09-07T04:44:16.763Z,177.53
2022-09-07T04:45:13.790Z,178.29
2022-09-07T04:46:13.926Z,177.72
2022-09-07T04:47:13.967Z,178.48
2022-09-07T04:48:14.053Z,177.91
2022-09-07T04:49:14.139Z,178.67
2022-09-07T04:50:14.195Z,180.01
2022-09-07T04:51:14.279Z,179.43
2022-09-07T04:52:14.334Z,181.17
2022-09-07T04:53:14.453Z,181.76
2022-09-07T04:54:14.582Z,182.35
2022-09-07T04:55:14.582Z,181.95
2022-09-07T04:56:17.003Z,182.15
2022-09-07T04:57:14.782Z,182.35
2022-09-07T04:58:14.941Z,182.74
2022-09-07T04:59:14.908Z,183.34
2022-09-07T05:00:15.079Z,184.15
2022-09-07T05:01:15.181Z,183.54
2022-09-07T05:02:15.213Z,184.96
2022-09-07T05:03:15.233Z,185.36
2022-09-07T05:04:15.315Z,185.16
2022-09-07T05:05:15.381Z,185.98
2022-09-07T05:06:15.478Z,186.60
2022-09-07T05:07:15.533Z,185.77
2022-09-07T05:08:15.610Z,185.24
2022-09-07T05:09:15.688Z,185.55
2022-09-07T05:10:15.784Z,185.87
2022-09-07T05:11:15.898Z,186.60
2022-09-07T05:12:15.917Z,186.29
2022-09-07T05:13:16.007Z,187.45
2022-09-07T05:14:16.099Z,186.71
2022-09-07T05:15:16.201Z,187.13
2022-09-07T05:16:16.374Z,187.55
2022-09-07T05:17:16.346Z,187.77
2022-09-07T05:18:16.452Z,187.34
2022-09-07T05:19:16.537Z,187.98
2022-09-07T05:20:20.169Z,188.62
2022-09-07T05:21:16.703Z,189.27
2022-09-07T05:22:16.787Z,189.38
2022-09-07T05:23:16.893Z,188.52
2022-09-07T05:24:16.951Z,189.60
2022-09-07T05:25:17.087Z,188.19
2022-09-07T05:26:17.134Z,188.95
2022-09-07T05:27:17.244Z,190.36
2022-09-07T05:28:19.426Z,189.16
2022-09-07T05:31:18.286Z,189.92
2022-09-07T05:32:17.630Z,189.71
2022-09-07T05:33:17.718Z,190.69
2022-09-07T05:34:33.416Z,190.36
2022-09-07T05:35:17.882Z,190.36
2022-09-07T05:36:17.979Z,191.57
2022-09-07T05:37:18.061Z,190.91
2022-09-07T05:38:18.148Z,191.35
2022-09-07T05:39:18.239Z,190.80
2022-09-07T05:40:18.867Z,192.36
2022-09-07T05:41:18.862Z,191.13
2022-09-07T05:42:18.458Z,190.91
2022-09-07T05:43:18.567Z,192.13
2022-09-07T05:45:18.720Z,191.02
2022-09-07T05:46:18.839Z,191.69
2022-09-07T05:47:18.849Z,191.57
2022-09-07T05:48:18.951Z,191.35
2022-09-07T05:49:19.004Z,189.82
2022-09-07T05:50:19.097Z,191.02
2022-09-07T05:51:19.160Z,190.03
2022-09-07T05:52:19.255Z,189.71
2022-09-07T05:53:19.324Z,188.41
2022-09-07T05:54:19.415Z,190.03
2022-09-07T05:55:29.788Z,190.14
2022-09-07T05:56:19.553Z,189.82
2022-09-07T05:57:19.599Z,189.92
2022-09-07T05:58:19.680Z,191.02
2022-09-07T05:59:19.777Z,190.91
2022-09-07T06:00:19.863Z,190.58
2022-09-07T06:01:19.956Z,191.35
2022-09-07T06:02:20.104Z,191.46
2022-09-07T06:03:20.325Z,191.57
2022-09-07T06:04:20.239Z,191.46
2022-09-07T06:05:20.323Z,191.24
2022-09-07T06:06:20.371Z,191.13
2022-09-07T06:07:22.779Z,192.02
2022-09-07T06:08:20.526Z,192.69
2022-09-07T06:09:20.586Z,193.14
2022-09-07T06:11:20.747Z,192.13
2022-09-07T06:12:20.834Z,192.47
2022-09-07T06:13:20.900Z,192.47
2022-09-07T06:14:20.968Z,192.80
2022-09-07T06:15:21.051Z,192.69
2022-09-07T06:16:21.200Z,192.80
2022-09-07T06:17:21.232Z,192.58
2022-09-07T06:18:21.281Z,191.69
2022-09-07T06:19:21.361Z,193.37
2022-09-07T06:20:21.464Z,192.92
2022-09-07T06:21:21.517Z,192.92
2022-09-07T06:22:21.621Z,192.80
2022-09-07T06:23:21.722Z,192.36
2022-09-07T06:24:21.820Z,193.26
2022-09-07T06:25:21.871Z,192.80
2022-09-07T06:26:21.919Z,193.93
2022-09-07T06:27:21.973Z,192.58
2022-09-07T06:28:22.081Z,194.05
2022-09-07T06:29:22.149Z,193.93
2022-09-07T06:30:22.212Z,194.05
2022-09-07T06:31:22.904Z,194.16
2022-09-07T06:33:22.471Z,194.16
2022-09-07T06:34:22.587Z,195.08
2022-09-07T06:35:22.727Z,192.80
2022-09-07T06:36:22.669Z,194.28
2022-09-07T06:37:22.752Z,193.60
2022-09-07T06:38:22.834Z,194.39
2022-09-07T06:39:22.956Z,194.28
2022-09-07T06:40:23.005Z,195.43
2022-09-07T06:42:23.154Z,195.20
2022-09-07T06:43:23.207Z,195.43
2022-09-07T06:44:23.354Z,194.74
2022-09-07T06:45:23.417Z,193.93
2022-09-07T06:47:23.580Z,194.74
2022-09-07T06:48:23.687Z,192.92
2022-09-07T06:49:23.735Z,192.02
2022-09-07T06:50:23.816Z,192.24
2022-09-07T06:51:23.879Z,193.37
2022-09-07T06:52:24.224Z,191.57
2022-09-07T06:55:24.233Z,190.36
2022-09-07T06:56:24.306Z,189.71
2022-09-07T06:57:24.385Z,190.69
2022-09-07T06:58:24.461Z,189.92
2022-09-07T06:59:24.555Z,189.60
2022-09-07T07:00:24.717Z,189.92
2022-09-07T07:01:24.700Z,189.16
2022-09-07T07:02:24.766Z,189.38
2022-09-07T07:03:24.897Z,188.30
2022-09-07T07:04:25.087Z,187.87
2022-09-07T07:05:25.021Z,189.05
2022-09-07T07:06:25.100Z,188.09
2022-09-07T07:07:25.196Z,187.87
2022-09-07T07:08:25.242Z,187.24
2022-09-07T07:09:25.317Z,188.19
2022-09-07T07:10:25.455Z,187.13
2022-09-07T07:11:25.436Z,185.97
2022-09-07T07:13:01.324Z,237.05
2022-09-07T07:14:02.344Z,226.02
2022-09-07T07:15:02.434Z,218.99
2022-09-07T07:16:02.527Z,215.98
2022-09-07T07:17:02.581Z,210.35
2022-09-07T07:18:19.797Z,207.84
2022-09-07T07:19:03.615Z,206.54
2022-09-07T07:20:02.836Z,204.37
2022-09-07T07:21:02.953Z,202.12
2022-09-07T07:22:18.637Z,201.50
2022-09-07T07:23:03.082Z,199.80
2022-09-07T07:24:07.958Z,198.71
2022-09-07T07:25:03.289Z,198.36
2022-09-07T07:26:03.284Z,196.47
2022-09-07T07:27:03.382Z,195.66
2022-09-07T07:29:04.271Z,193.82
2022-09-07T07:30:03.654Z,193.60
2022-09-07T07:31:07.364Z,194.16
2022-09-07T07:32:03.773Z,193.60
2022-09-07T07:33:03.876Z,191.69
2022-09-07T07:34:04.024Z,191.02
2022-09-07T07:35:04.026Z,190.69
2022-09-07T07:36:04.140Z,191.24
2022-09-07T07:37:04.182Z,190.69
2022-09-07T07:39:04.563Z,191.13
2022-09-07T07:40:22.766Z,189.49
2022-09-07T07:42:06.005Z,189.49
2022-09-07T07:43:05.721Z,189.38
2022-09-07T07:44:04.712Z,188.62
2022-09-07T07:46:06.222Z,187.77
2022-09-07T07:47:05.027Z,188.62
2022-09-07T07:48:04.985Z,188.95
2022-09-07T07:49:05.079Z,188.30
2022-09-07T07:51:09.771Z,187.66
2022-09-07T07:54:05.521Z,187.02
2022-09-07T07:55:42.869Z,185.97
2022-09-07T07:56:05.685Z,187.24
2022-09-07T07:57:05.801Z,186.60
2022-09-07T07:58:05.804Z,186.50
2022-09-07T07:59:06.056Z,186.60
2022-09-07T08:00:05.949Z,185.45
2022-09-07T08:01:06.163Z,185.66
2022-09-07T08:02:06.355Z,185.55
2022-09-07T08:03:06.310Z,185.98
2022-09-07T08:04:06.306Z,185.76
2022-09-07T08:05:06.375Z,185.87
2022-09-07T08:06:06.383Z,186.18
2022-09-07T08:07:10.697Z,185.45
2022-09-07T08:08:06.575Z,185.77
2022-09-07T08:09:06.698Z,186.18
2022-09-07T08:10:06.711Z,185.35
2022-09-07T08:11:06.804Z,185.98
2022-09-07T08:12:06.863Z,185.55
2022-09-07T08:13:06.959Z,185.98
2022-09-07T08:14:07.008Z,185.57
2022-09-07T08:15:07.074Z,185.36
2022-09-07T08:16:07.178Z,185.16
2022-09-07T08:17:07.256Z,185.98
2022-09-07T08:18:07.357Z,186.39
2022-09-07T08:19:07.414Z,184.96
2022-09-07T08:20:07.523Z,184.35
2022-09-07T08:21:07.555Z,184.35
2022-09-07T08:22:07.624Z,185.36
2022-09-07T08:23:07.740Z,184.96
2022-09-07T08:24:07.797Z,184.96
2022-09-07T08:25:07.921Z,184.96
2022-09-07T08:26:07.975Z,185.16
2022-09-07T08:27:08.103Z,186.39
2022-09-07T08:28:08.153Z,185.57
2022-09-07T08:29:08.269Z,184.55
2022-09-07T08:30:08.268Z,184.75
2022-09-07T08:31:08.417Z,184.75
2022-09-07T08:32:08.420Z,184.55
2022-09-07T08:33:08.537Z,183.14
2022-09-07T08:34:08.586Z,183.94
2022-09-07T08:35:08.671Z,184.96
2022-09-07T08:36:08.804Z,185.57
2022-09-07T08:37:08.867Z,184.55
2022-09-07T08:38:08.902Z,184.75
2022-09-07T08:39:09.065Z,183.34
2022-09-07T08:40:09.137Z,183.54
2022-09-07T08:41:09.158Z,185.36
2022-09-07T08:42:09.248Z,183.34
2022-09-07T08:43:09.361Z,182.55
2022-09-07T08:44:09.486Z,184.35
2022-09-07T08:45:09.488Z,183.14
2022-09-07T08:46:09.589Z,182.35
2022-09-07T08:47:09.627Z,182.74
2022-09-07T08:48:09.696Z,183.34
2022-09-07T08:49:09.802Z,183.34
2022-09-07T08:50:09.861Z,182.94
2022-09-07T08:51:09.977Z,182.94
2022-09-07T08:52:10.021Z,183.14
2022-09-07T08:53:10.115Z,182.94
2022-09-07T08:54:10.210Z,184.55
2022-09-07T08:55:10.265Z,184.15
2022-09-07T08:56:10.356Z,183.14
2022-09-07T08:57:25.729Z,183.34
2022-09-07T08:58:26.677Z,182.94
2022-09-07T08:59:10.589Z,182.74
2022-09-07T09:00:10.684Z,182.74
2022-09-07T09:04:19.432Z,182.35
2022-09-07T09:05:19.023Z,182.15
2022-09-07T09:06:12.061Z,182.15
2022-09-07T09:07:11.311Z,183.74
2022-09-07T09:08:11.304Z,184.15
2022-09-07T09:09:11.384Z,181.95
2022-09-07T09:10:11.444Z,182.15
2022-09-07T09:11:11.545Z,182.94
2022-09-07T09:12:11.631Z,182.15
2022-09-07T09:13:11.706Z,183.34
2022-09-07T09:14:11.907Z,182.74
2022-09-07T09:15:11.944Z,182.15
2022-09-07T09:16:12.059Z,181.56
2022-09-07T09:17:12.050Z,183.14
2022-09-07T09:18:14.416Z,182.55
2022-09-07T09:19:12.195Z,182.55
2022-09-07T09:20:12.264Z,181.76
2022-09-07T09:21:12.346Z,182.74
2022-09-07T09:22:12.412Z,181.76
2022-09-07T09:23:12.528Z,182.55
2022-09-07T09:24:12.600Z,181.95
2022-09-07T09:25:12.651Z,181.56
2022-09-07T09:26:12.727Z,182.74
2022-09-07T09:27:12.831Z,181.76
2022-09-07T09:28:12.900Z,181.56
2022-09-07T09:29:13.000Z,182.15
2022-09-07T09:30:13.055Z,182.15
2022-09-07T09:31:13.173Z,182.55
2022-09-07T09:32:13.207Z,183.14
2022-09-07T09:33:13.309Z,183.34
2022-09-07T09:34:13.412Z,183.14
2022-09-07T09:35:13.455Z,183.14
2022-09-07T09:36:13.548Z,182.35
2022-09-07T09:37:13.617Z,182.55
2022-09-07T09:38:13.699Z,181.36
2022-09-07T09:39:13.823Z,182.55
2022-09-07T09:40:14.017Z,181.76
2022-09-07T09:41:13.950Z,182.35
2022-09-07T09:42:14.038Z,182.15
2022-09-07T09:43:14.131Z,181.95
2022-09-07T09:44:14.267Z,182.35
2022-09-07T09:45:14.297Z,182.15
2022-09-07T09:46:14.398Z,182.94
2022-09-07T09:47:30.622Z,180.97
2022-09-07T09:48:14.546Z,181.36
2022-09-07T09:49:14.665Z,181.36
2022-09-07T09:52:27.802Z,183.34
2022-09-07T09:52:39.086Z,181.36
2022-09-07T09:52:51.855Z,178.48
2022-09-07T09:53:43.787Z,181.17
2022-09-07T09:54:43.808Z,179.24
2022-09-07T09:55:43.869Z,179.43
2022-09-07T09:56:44.004Z,180.01
2022-09-07T09:59:04.757Z,180.01
2022-09-07T10:00:04.039Z,180.01
2022-09-07T10:04:01.317Z,180.78
2022-09-07T10:04:44.656Z,181.76
2022-09-07T10:05:44.703Z,181.36
2022-09-07T10:06:44.799Z,180.97
2022-09-07T10:07:44.852Z,181.36
2022-09-07T10:08:44.963Z,180.78
2022-09-07T10:09:44.998Z,182.15
2022-09-07T10:10:45.094Z,180.97
2022-09-07T10:12:45.278Z,182.35
2022-09-07T10:13:45.335Z,180.97
2022-09-07T10:14:45.425Z,182.35
2022-09-07T10:15:45.486Z,182.55
2022-09-07T10:16:45.524Z,181.36
2022-09-07T10:17:45.612Z,180.97
2022-09-07T10:18:45.681Z,181.76
2022-09-07T10:19:45.785Z,181.17
2022-09-07T10:20:45.882Z,181.36
2022-09-07T10:21:45.950Z,180.78
2022-09-07T10:22:50.904Z,182.55
2022-09-07T10:23:46.119Z,181.36
2022-09-07T10:24:46.201Z,180.78
2022-09-07T10:25:46.268Z,181.95
2022-09-07T10:26:46.361Z,181.36
2022-09-07T10:27:46.470Z,180.59
2022-09-07T10:29:46.621Z,181.56
2022-09-07T10:30:46.759Z,180.78
2022-09-07T10:31:46.788Z,180.59
2022-09-07T10:32:46.884Z,180.78
2022-09-07T10:34:25.625Z,181.76
2022-09-07T10:34:47.047Z,180.97
2022-09-07T10:35:47.640Z,181.36
2022-09-07T10:36:47.218Z,181.17
2022-09-07T10:37:47.299Z,181.76
2022-09-07T10:38:47.377Z,180.97
2022-09-07T10:39:47.487Z,181.76
2022-09-07T10:40:47.561Z,182.15
2022-09-07T10:41:47.622Z,180.78
2022-09-07T10:43:47.796Z,181.76
2022-09-07T10:44:47.908Z,181.36
2022-09-07T10:45:48.083Z,180.97
2022-09-07T10:47:03.494Z,181.76
2022-09-07T10:47:48.153Z,182.94
2022-09-07T10:48:48.196Z,182.15
2022-09-07T10:50:48.406Z,181.95
2022-09-07T10:51:48.469Z,181.95
2022-09-07T10:52:48.528Z,182.15
2022-09-07T10:54:29.962Z,182.15
2022-09-07T10:54:48.702Z,182.15
2022-09-07T10:55:48.782Z,181.17
2022-09-07T10:56:48.858Z,182.15
2022-09-07T10:57:49.429Z,180.78
2022-09-07T10:59:04.691Z,182.35
2022-09-07T11:00:49.156Z,181.95
2022-09-07T11:01:49.295Z,183.14
2022-09-07T11:03:49.425Z,181.36
2022-09-07T11:04:49.473Z,181.76
2022-09-07T11:05:49.557Z,182.35
2022-09-07T11:06:49.663Z,181.17
2022-09-07T11:07:49.737Z,182.55
2022-09-07T11:09:49.908Z,181.36
2022-09-07T11:10:49.980Z,183.14
2022-09-07T11:12:05.341Z,181.95
2022-09-07T11:12:50.153Z,181.95
2022-09-07T11:14:11.962Z,182.35
2022-09-07T11:14:50.306Z,183.14
2022-09-07T11:15:50.489Z,182.94
2022-09-07T11:16:51.174Z,182.35
2022-09-07T11:17:52.958Z,180.97
2022-09-07T11:18:50.901Z,181.36
2022-09-07T11:19:50.697Z,181.95
2022-09-07T11:20:50.789Z,182.15
2022-09-07T11:21:57.995Z,181.95
2022-09-07T11:22:50.966Z,182.55
2022-09-07T11:23:51.045Z,182.35
2022-09-07T11:25:52.094Z,182.15
2022-09-07T11:26:51.300Z,181.95
2022-09-07T11:27:51.352Z,182.15
2022-09-07T11:29:29.238Z,182.55
2022-09-07T11:29:51.531Z,181.17
2022-09-07T11:30:51.715Z,182.35
2022-09-07T11:31:51.696Z,182.35
2022-09-07T11:32:51.797Z,180.97
2022-09-07T11:34:52.361Z,180.59
2022-09-07T11:35:52.015Z,181.76
2022-09-07T11:36:52.085Z,180.39
2022-09-07T11:37:52.164Z,181.76
2022-09-07T11:38:52.261Z,180.59
2022-09-07T11:39:52.392Z,180.97
2022-09-07T11:40:52.392Z,181.17
2022-09-07T11:41:52.469Z,181.36
2022-09-07T11:42:52.551Z,181.17
2022-09-07T11:43:52.828Z,182.15
2022-09-07T11:44:52.837Z,181.17
2022-09-07T11:45:52.873Z,181.36
2022-09-07T11:46:52.915Z,180.97
2022-09-07T11:47:52.966Z,180.59
2022-09-07T11:48:53.088Z,180.39
2022-09-07T11:49:57.205Z,181.56
2022-09-07T11:50:53.243Z,179.24
2022-09-07T11:51:54.283Z,180.59
2022-09-07T11:52:53.847Z,181.17
2022-09-07T11:53:53.434Z,180.78
2022-09-07T11:54:53.556Z,180.01
2022-09-07T11:55:53.600Z,180.39
2022-09-07T11:56:53.696Z,180.97
2022-09-07T11:57:55.738Z,180.78
2022-09-07T11:58:53.865Z,180.59
2022-09-07T11:59:53.977Z,180.01
2022-09-07T12:00:54.047Z,180.39
2022-09-07T12:01:54.087Z,179.05
2022-09-07T12:03:01.564Z,180.39
2022-09-07T12:03:54.372Z,178.86
2022-09-07T12:04:56.520Z,179.62
2022-09-07T12:05:54.412Z,180.01
2022-09-07T12:06:54.486Z,180.01
2022-09-07T12:07:54.548Z,180.01
2022-09-07T12:08:54.663Z,179.43
2022-09-07T12:09:54.734Z,179.43
2022-09-07T12:10:54.968Z,178.67
2022-09-07T12:11:54.886Z,180.01
2022-09-07T12:12:54.950Z,179.62
2022-09-07T12:13:55.031Z,179.43
2022-09-07T12:14:55.122Z,178.29
2022-09-07T12:15:55.245Z,179.24
2022-09-07T12:16:55.293Z,179.24
2022-09-07T12:17:55.366Z,179.81
2022-09-07T12:18:55.477Z,179.62
2022-09-07T12:19:55.557Z,179.43
2022-09-07T12:20:55.691Z,178.67
2022-09-07T12:21:55.704Z,179.24
2022-09-07T12:22:55.822Z,179.24
2022-09-07T12:23:55.879Z,178.67
2022-09-07T12:24:55.958Z,179.81
2022-09-07T12:25:56.077Z,179.43
2022-09-07T12:26:56.215Z,178.10
2022-09-07T12:27:56.213Z,177.53
2022-09-07T12:28:56.296Z,179.62
2022-09-07T12:29:56.367Z,177.72
2022-09-07T12:30:56.529Z,178.67
2022-09-07T12:31:59.755Z,178.29
2022-09-07T12:32:58.357Z,178.10
2022-09-07T12:33:56.707Z,177.72
2022-09-07T12:34:56.786Z,178.86
2022-09-07T12:35:56.912Z,177.91
2022-09-07T12:36:57.040Z,178.10
2022-09-07T12:37:57.032Z,176.97
2022-09-07T12:38:57.095Z,178.10
2022-09-07T12:39:57.218Z,177.53
2022-09-07T12:40:57.259Z,177.91
2022-09-07T12:42:57.404Z,177.35
2022-09-07T12:43:57.492Z,177.91
2022-09-07T12:44:57.570Z,178.29
2022-09-07T12:45:57.673Z,176.60
2022-09-07T12:46:57.722Z,177.91
2022-09-07T12:47:57.789Z,177.35
2022-09-07T12:48:57.879Z,178.29
2022-09-07T12:49:57.958Z,177.53
2022-09-07T12:50:58.038Z,177.72
2022-09-07T12:52:00.246Z,177.35
2022-09-07T12:52:58.227Z,178.10
2022-09-07T12:53:58.277Z,176.42
2022-09-07T12:55:23.641Z,176.97
2022-09-07T12:57:58.607Z,177.16
2022-09-07T12:58:58.688Z,177.72
2022-09-07T12:59:58.825Z,175.49
2022-09-07T13:00:58.900Z,176.05
2022-09-07T13:01:59.024Z,177.72
2022-09-07T13:02:59.037Z,176.79
2022-09-07T13:03:59.191Z,177.16
2022-09-07T13:04:59.175Z,176.05
2022-09-07T13:05:59.235Z,176.97